Tiempo atmosférico en la estación meteorológica de San Sebastián Aeropuerto, Gipuzkoa (4 m.)



Fecha
DESCASC
Temp. máxima en grados centígrados (hora)
DESCASC
Temp. mínima en grados centígrados (hora)
DESCASC
Temp. media en grados centígrados
DESCASC
Racha de viento máxima en m/sg (hora)
DESCASC
Velocidad máxima media en intervalos de 10 minutos(hora)
DESCASC
Precipitaciones diarias en mm
DESCASC
Precipitaciones de 00:00 a 06:00 en mm
DESCASC
Precipitaciones de 06:00 a 12:00 en mm
DESCASC
Precipitaciones de 12:00 a 18:00 en mm
DESCASC
Precipitaciones de 18:00 a 24:00 en mm
DESCASC
05-04-2020 24.8 (16:50) 16.4 (07:30) 20.6 15.28 (01:10) 10 (01:20) 0 0 0 0 0
04-04-2020 24.6 (17:20) 3.2 (07:50) 13.9 13.33 (23:59) 8.06 (15:10) 0 0 0 0 0
03-04-2020 13.6 (15:30) 6.4 (03:40) 10 6.11 (15:30) 3.89 (14:50) 0 0 0 0 0
02-04-2020 15.9 (15:40) 8.6 (00:00) 12.3 8.33 (18:10) 4.72 (16:30) 0 0 0 0 0
01-04-2020 16.9 (12:30) 7.9 (00:00) 12.4 6.67 (13:10) 4.72 (13:20) 0.1 0 0 0 0.1
31-03-2020 10.8 (17:50) 3.5 (00:00) 7.2 5.83 (17:40) 3.61 (23:40) 2.5 0 2.1 0.4 0
30-03-2020 8.5 (16:20) 1.4 (00:00) 4.9 10.28 (00:30) 8.06 (00:30) 8.5 1.6 6.8 0.1 0
29-03-2020 13.9 (13:30) 5.5 (00:00) 9.7 11.39 (23:30) 8.61 (23:20) 1.3 0 0 0.1 1.2
28-03-2020 15.8 (16:00) 6.1 (00:00) 11 5 (11:50) 3.89 (14:00) 0 0 0 0 0
27-03-2020 14.3 (15:00) 4.6 (00:00) 9.5 6.67 (15:50) 4.72 (16:00) 0 0 0 0 0
26-03-2020 13.8 (15:00) 7.6 (00:00) 10.7 10.28 (01:30) 7.22 (01:30) 0 0 0 0 0
25-03-2020 16.1 (12:50) 7.8 (00:00) 12 8.89 (15:00) 6.11 (23:40) 0 0 0 0 0
24-03-2020 17.3 (15:50) 9.2 (00:00) 13.2 6.11 (12:00) 4.72 (12:00) 0 0 0 0 0
23-03-2020 15.5 (14:50) 10.5 (00:00) 13 5 (15:10) 3.89 (16:00) 0 0 0 0 0
22-03-2020 15.5 (16:10) 9.7 (02:30) 12.6 5.83 (12:00) 3.89 (09:30) 0 0 0 0 0
21-03-2020 20.8 (13:40) 9.3 (00:00) 15 7.22 (14:10) 4.72 (14:10) 0 0 0 0 0
20-03-2020 22 (16:10) 11.6 (00:00) 16.8 9.17 (14:30) 6.39 (12:40) 0 0 0 0 0
19-03-2020 22.7 (16:40) 9.7 (00:00) 16.2 8.89 (16:40) 5.28 (16:30) 0 0 0 0 0
18-03-2020 17.8 (15:30) 7.9 (00:00) 12.8 4.17 (12:20) 3.06 (12:20) 0 0 0 0 0
17-03-2020 14 (16:20) 10.4 (00:00) 12.2 3.61 (11:40) 2.78 (16:50) 0.3 0 0.3 0 0
16-03-2020 12.2 (15:50) 9.7 (00:00) 10.9 11.67 (03:40) 7.22 (00:30) 39.3 31.4 6.7 0.5 0.7
15-03-2020 22.9 (12:20) 3.9 (00:00) 13.4 10.83 (13:00) 7.5 (13:00) 19.5 0 0 0 19.5
14-03-2020 13.7 (15:10) 6.8 (00:00) 10.3 4.72 (12:10) 3.61 (13:40) 0 0 0 0 0
13-03-2020 13.8 (14:00) 9.9 (23:40) 11.8 7.78 (12:00) 5.83 (12:20) 0 0 0 0 0
12-03-2020 14.4 (14:10) 11.3 (00:00) 12.8 6.67 (21:10) 4.44 (23:10) 0.6 0 0 0 0.6
11-03-2020 15.8 (13:20) 6.2 (00:00) 11 5.83 (14:40) 4.17 (14:50) 0 0 0 0 0
10-03-2020 16.3 (14:00) 8.3 (00:00) 12.3 6.11 (14:00) 3.89 (15:10) -- 0 -- -- 0
09-03-2020 13.7 (14:50) 9.9 (00:00) 11.8 13.89 (00:50) 7.5 (00:20) 7.9 3.2 4.7 0 0
08-03-2020 17.2 (13:30) 4.1 (00:00) 10.7 15 (23:40) 8.06 (21:50) 1.6 0 0 0 1.6

Gráficas

Temp. máximas Temp. mínimas Temp. medias Precipitaciones Rachas de viento máximas Velocidades máximas media en intervalos de 10 minutos

Datos horarios

Fecha y hora oficial Temperatura (ºC) Velocidad del viento (km/h) Dirección del viento Racha (km/h) Dirección de racha Precipitación (mm) Presión (hPa) Tendencia (hPa) Humedad (%)
2020-04-06 23:00:00 13 0 Calma 5 Sudoeste 4.8 1023.7 1.1 96
2020-04-06 22:00:00 13.1 4 Sudoeste 9 Sudoeste 3 1023.5 1.4 95
2020-04-06 21:00:00 13.3 6 Sudoeste 9 Sudoeste 1.6 1022.9 1.1 94
2020-04-06 20:00:00 14.1 7 Sudoeste 11 Sudoeste 2.3 1022.6 0.9 93
2020-04-06 19:00:00 14.5 9 Sudoeste 13 Sudoeste 0.4 1022.1 0.2 87
2020-04-06 18:00:00 14.7 4 Sur 9 Sur 0 1021.8 0.7 81
2020-04-06 17:00:00 14.4 5 Sudoeste 18 Oeste 0 1021.7 1.4 82
2020-04-06 16:00:00 14.5 12 Noroeste 22 Noroeste 0.1 1021.9 2.1 86
2020-04-06 15:00:00 14.8 12 Nordeste 17 Norte 0 1021.1 1.5 88
2020-04-06 14:00:00 15.2 11 Norte 18 Nordeste 0 1020.3 1.3 82
2020-04-06 13:00:00 15.8 13 Nordeste 17 Norte 0 1019.8 1.7 80
2020-04-06 12:00:00 15.2 9 Nordeste 11 Nordeste 0 1019.6 2.1 85
2020-04-06 11:00:00 15.5 7 Norte 13 Norte 0 1019 2.3 82
2020-04-06 10:00:00 15.4 6 Norte 11 Sur 0.1 1018.1 2.3 76
2020-04-06 09:00:00 15.6 10 Sur 32 Sur 0.1 1017.5 2.1 69
2020-04-06 08:00:00 15.2 22 Sur 35 Sur 0 1016.7 1.4 72
2020-04-06 07:00:00 15.8 28 Sur 42 Sudoeste 0.1 1015.8 0.3 66
2020-04-06 06:00:00 16.3 12 Sur 33 Sur 0.4 1015.4 0.4 64
2020-04-06 05:00:00 14.5 7 Sur 13 Sur 1.3 1015.3 1 91
2020-04-06 04:00:00 15.1 3 Norte 11 Sudoeste 1.2 1015.5 1.3 83
2020-04-06 03:00:00 16.7 10 Sudoeste 28 Sudoeste 0.7 1015 1.5 70
2020-04-06 02:00:00 19.5 19 Sudoeste 28 Sudoeste 0 1014.3 1.1 44
2020-04-06 01:00:00 20.1 16 Sur 35 Sudoeste 0 1014.2 1.5 39
2020-04-06 00:00:00 20.2 19 Sudoeste 35 Sudoeste 0 1013.5 1.4 40
2020-04-05 23:00:00 20.5 12 Sur 24 Sur 0 1013.2 1.8 40
2020-04-05 22:00:00 20.1 18 Sur 22 Sur 0 1012.7 1.7 43
2020-04-05 21:00:00 21 14 Sur 24 Sur 0 1012.1 0.9 40
2020-04-05 20:00:00 22.2 9 Sur 28 Sur 0 1011.4 0.4 38
2020-04-05 19:00:00 22.5 23 Sur 37 Sur 0 1011 -0.4 36
2020-04-05 18:00:00 22.9 22 Sur 42 Sur 0 1011.2 -0.8 35
2020-04-05 17:00:00 24.3 14 Sur 32 Sur 0 1011 -1.8 32
2020-04-05 16:00:00 22.5 17 Sur 37 Sur 0 1011.4 -2 34
2020-04-05 15:00:00 21.5 29 Sur 39 Sur 0 1012 -1.8 35
2020-04-05 14:00:00 20.8 21 Sur 39 Sur 0 1012.8 -1 36
2020-04-05 13:00:00 19.6 25 Sur 42 Sur 0 1013.4 -0.5 36
2020-04-05 12:00:00 19.1 27 Sur 42 Sur 0 1013.8 0.8 36
2020-04-05 11:00:00 18.3 23 Sur 37 Sur 0 1013.8 0.8 37
2020-04-05 10:00:00 18.4 4 Este 41 Sur 0 1013.9 1.5 35
2020-04-05 09:00:00 17 26 Sur 45 Sur 0 1013 0.3 35
2020-04-05 08:00:00 16.5 24 Sur 50 Sur 0 1013 0 36
2020-04-05 07:00:00 16.5 36 Sur 54 Sur 0 1012.4 -0.8 36
2020-04-05 06:00:00 16.9 29 Sur 52 Sur 0 1012.7 -1 36
2020-04-05 05:00:00 17.3 22 Sur 42 Sudeste 0 1013 -0.7 36
2020-04-05 04:00:00 18 21 Sur 39 Sur 0 1013.2 0.3 34
2020-04-05 03:00:00 17.8 16 Sur 30 Sur 0 1013.7 1 37
2020-04-05 02:00:00 18.9 18 Sur 55 Sur 0 1013.7 0.5 36
2020-04-05 01:00:00 19.4 32 Sudeste 54 Sur 0 1012.9 -0.1 37
2020-04-05 00:00:00 19.6 27 Sur 48 Sur 0 1012.7 0.1 33
2020-04-04 23:00:00 19.4 4 Oeste 21 Sur 0 1013.2 0.9 34
2020-04-04 22:00:00 19.7 9 Sur 28 Sur 0 1013 1 32
2020-04-04 21:00:00 20.8 17 Sur 32 Sur 0 1012.6 0.7 28
2020-04-04 20:00:00 22.5 18 Sur 32 Sur 0 1012.3 0.1 21
2020-04-04 19:00:00 23.6 26 Sur 41 Sur 0 1012 -0.7 22
2020-04-04 18:00:00 24.3 27 Sur 39 Sur 0 1011.9 -1.6 23
2020-04-04 17:00:00 24.1 23 Sur 35 Sur 0 1012.2 -1.8 26
2020-04-04 16:00:00 23.5 18 Sudeste 41 Sur 0 1012.7 -1.9 29
2020-04-04 15:00:00 23 24 Sur 41 Sudeste 0 1013.5 -1.5 28
2020-04-04 14:00:00 22 23 Sudeste 33 Sudeste 0 1014 -1.1 33
2020-04-04 13:00:00 20.9 24 Sudeste 32 Sur 0 1014.6 -0.5 34
2020-04-04 12:00:00 19.5 4 Este 9 Sur 0 1015 -0.1 37
2020-04-04 11:00:00 15.6 3 Norte 11 Este 0 1015.1 0 55
2020-04-04 10:00:00 10 3 Sur 9 Sudoeste 0 1015.1 -0.1 76
2020-04-04 09:00:00 6 5 Sur 8 Sur 0 1015.1 -0.5 88
2020-04-04 08:00:00 3.6 5 Sudoeste 11 Sur 0 1015.1 -0.8 91
2020-04-04 07:00:00 4 7 Sudoeste 9 Sudoeste 0 1015.2 -1 90
2020-04-04 06:00:00 4.6 8 Sudoeste 11 Sur 0 1015.6 -1 88
2020-04-04 05:00:00 4.7 5 Sudoeste 8 Sudoeste 0 1015.9 -0.9 88
2020-04-04 04:00:00 5.3 6 Sur 11 Sudoeste 0 1016.2 -1.1 86
2020-04-04 03:00:00 5.6 9 Sudoeste 9 Sudoeste 0 1016.6 -1.2 85
2020-04-04 02:00:00 6.2 6 Sur 8 Sur 0 1016.8 -1.2 84
2020-04-04 01:00:00 7 6 Sur 9 Sudoeste 0 1017.3 -0.7 81
2020-04-04 00:00:00 8 6 Sur 11 Sudoeste 0 1017.8 0 77
2020-04-03 23:00:00 8.4 4 Oeste 8 Este 0 1018 0 76
2020-04-03 22:00:00 10.4 5 Sur 13 Este 0 1018 0.1 68
2020-04-03 21:00:00 11.1 8 Este 15 Nordeste 0 1017.8 -0.2 63
2020-04-03 20:00:00 11.8 12 Nordeste 17 Nordeste 0 1018 -0.3 59
2020-04-03 19:00:00 12.5 12 Nordeste 17 Nordeste 0 1017.9 -0.9 54
2020-04-03 18:00:00 12.9 12 Nordeste 18 Nordeste 0 1018 -1.4 53
2020-04-03 17:00:00 13.3 11 Norte 18 Norte 0 1018.3 -1.3 51
2020-04-03 16:00:00 13.3 13 Norte 22 Norte 0 1018.8 -1.3 51
2020-04-03 15:00:00 13.3 13 Norte 18 Norte 0 1019.4 -0.8 53
2020-04-03 14:00:00 13 12 Norte 18 Norte 0 1019.6 -0.4 57
2020-04-03 13:00:00 12.9 10 Norte 17 Norte 0 1020.1 0.6 55
2020-04-03 12:00:00 12.8 11 Nordeste 18 Nordeste 0 1020.2 1 59
2020-04-03 11:00:00 12.2 6 Nordeste 11 Nordeste 0 1020 1.1 61
2020-04-03 10:00:00 10.8 8 Sur 15 Sudoeste 0 1019.5 0.9 65
2020-04-03 09:00:00 9.4 9 Sur 15 Sudoeste 0 1019.2 0.7 72
2020-04-03 08:00:00 7.9 9 Sur 13 Sur 0 1018.9 0.3 81
2020-04-03 07:00:00 7.9 10 Sur 13 Sur 0 1018.6 -0.2 81
2020-04-03 06:00:00 8.2 9 Sur 17 Sudoeste 0 1018.5 -0.7 77
2020-04-03 05:00:00 7 11 Sur 13 Sur 0 1018.6 -0.5 86
2020-04-03 04:00:00 6.6 9 Sur 13 Sur 0 1018.8 -0.4 88
2020-04-03 03:00:00 6.8 7 Sur 11 Sur 0 1019.2 0.2 87
2020-04-03 02:00:00 7.6 8 Sur 11 Sudoeste 0 1019.1 0.4 84
2020-04-03 01:00:00 8.3 6 Sur 9 Sur 0 1019.2 1 81
2020-04-03 00:00:00 9 4 Oeste 13 Oeste 0 1019 1.8 70
2020-04-02 23:00:00 9 7 Oeste 9 Sudoeste 0 1018.7 2 70
2020-04-02 22:00:00 10 6 Oeste 11 Oeste 0 1018.2 2.2 68
2020-04-02 21:00:00 10.8 7 Oeste 15 Oeste 0 1017.2 1.8 67
2020-04-02 20:00:00 12.4 9 Noroeste 22 Noroeste 0 1016.7 1.6 62
2020-04-02 19:00:00 12.9 12 Noroeste 30 Oeste 0 1016 0.8 67
2020-04-02 18:00:00 15 17 Noroeste 24 Oeste 0 1015.4 0.4 70
2020-04-02 17:00:00 14.8 15 Oeste 28 Oeste 0 1015.1 0.1 69
2020-04-02 16:00:00 15 12 Noroeste 22 Noroeste 0 1015.2 0.1 60
2020-04-02 15:00:00 15.5 12 Noroeste 22 Norte 0 1015 0.2 65
2020-04-02 14:00:00 14.1 12 Noroeste 21 Noroeste 0 1015 0.7 72
2020-04-02 13:00:00 12.6 10 Norte 15 Nordeste 0 1015.1 1.4 77
2020-04-02 12:00:00 11.9 10 Este 13 Este 0 1014.8 1.6 90
2020-04-02 11:00:00 10.7 0 Calma 5 Norte 0 1014.3 1.6 97
2020-04-02 10:00:00 10.3 0 Calma 5 Sudoeste 0 1013.7 1.3 98
2020-04-02 09:00:00 10 0 Calma 5 Sudoeste 0 1013.2 0.9 98
2020-04-02 08:00:00 9.6 0 Calma 8 Sur 0 1012.7 0.5 98
2020-04-02 07:00:00 9.4 6 Sur 9 Sur 0 1012.4 -0.1 98
2020-04-02 06:00:00 9.1 6 Sur 8 Sur 0 1012.3 -0.3 97
2020-04-02 05:00:00 10.3 5 Sur 8 Sur 0 1012.2 -0.3 96
2020-04-02 04:00:00 10.7 0 Calma 5 Sur 0 1012.5 -0.3 95
2020-04-02 03:00:00 11.2 0 Calma 11 Sur 0 1012.6 -0.6 95
2020-04-02 02:00:00 11.2 7 Sur 11 Sudoeste 0 1012.5 -0.5 96
2020-04-02 01:00:00 11.5 10 Sur 11 Sur 0 1012.8 -0.2 96
2020-04-02 00:00:00 11.7 9 Sur 9 Sur 0 1013.2 0.6 95
2020-04-01 23:00:00 12 9 Sur 11 Sur 0 1013 0.8 94
2020-04-01 22:00:00 12.3 9 Sur 11 Sur 0.1 1013 1 91
2020-04-01 21:00:00 13.3 5 Este 9 Sur 0 1012.6 0.7 83
2020-04-01 20:00:00 13.4 5 Nordeste 11 Norte 0 1012.2 0.2 81
2020-04-01 19:00:00 14.3 10 Nordeste 17 Nordeste 0 1012 0 74
2020-04-01 18:00:00 15.2 5 Sudoeste 9 Sur 0 1011.9 -0.5 65
2020-04-01 17:00:00 15.6 6 Sur 11 Sur 0 1012 -0.5 63
2020-04-01 16:00:00 15.3 4 Nordeste 17 Norte 0 1012 -0.4 65
2020-04-01 15:00:00 14.9 11 Norte 18 Norte 0 1012.4 -0.2 71
2020-04-01 14:00:00 15.7 13 Norte 24 Este 0 1012.5 -0.6 69
2020-04-01 13:00:00 15.7 14 Nordeste 22 Nordeste 0 1012.4 -0.5 66
2020-04-01 12:00:00 14.6 10 Norte 17 Norte 0 1012.6 -0.2 72
2020-04-01 11:00:00 12.3 4 Nordeste 5 Este 0 1013.1 0.4 80
2020-04-01 10:00:00 9.4 5 Sur 8 Sur 0 1012.9 0.4 92
2020-04-01 09:00:00 8.7 5 Sur 13 Sudeste 0 1012.8 0.2 94
2020-04-01 08:00:00 8.1 4 Sudoeste 9 Sudeste 0 1012.7 0 95
2020-04-01 07:00:00 8.1 0 Calma 8 Sur 0 1012.5 -0.5 95
2020-04-01 06:00:00 8.1 6 Sur 9 Sur 0 1012.6 -0.7 95
2020-04-01 05:00:00 8.2 2 Sudeste 8 Sudeste 0 1012.7 -0.7 95
2020-04-01 04:00:00 8.1 6 Sur 8 Sur 0 1013 -0.6 93
2020-04-01 03:00:00 8.2 4 Sudeste 9 Este 0 1013.3 -0.5 94
2020-04-01 02:00:00 8.5 9 Sur 11 Sur 0 1013.4 -0.5 91
2020-04-01 01:00:00 8.5 6 Sudeste 9 Sudeste 0 1013.6 -0.3 92
2020-04-01 00:00:00 8.8 3 Sudeste 18 Este 0 1013.8 0.2 87
2020-03-31 23:00:00 8.8 4 Este 13 Este 0 1013.9 0.4 90
2020-03-31 22:00:00 9.2 10 Este 15 Este 0 1013.9 0.5 84
2020-03-31 21:00:00 9.3 10 Este 13 Este 0 1013.6 0.2 85
2020-03-31 20:00:00 9.8 11 Sudeste 15 Sudeste 0 1013.5 0 82
2020-03-31 19:00:00 10.2 9 Sudeste 15 Sudeste 0 1013.4 -0.5 77
2020-03-31 18:00:00 10.7 9 Sudeste 21 Este 0 1013.4 -0.8 71
2020-03-31 17:00:00 9.6 5 Sudeste 8 Sudeste 0.1 1013.5 -0.9 76
2020-03-31 16:00:00 9.1 0 Calma 9 Norte 0 1013.9 -0.9 78
2020-03-31 15:00:00 8.6 4 Norte 9 Norte 0 1014.2 -0.9 79
2020-03-31 14:00:00 7.6 5 Norte 9 Norte 0 1014.4 -0.9 80
2020-03-31 13:00:00 6.3 3 Este 9 Sudeste 0.3 1014.8 -0.3 85
2020-03-31 12:00:00 5.6 5 Este 11 Este 0.3 1015.1 0 91
2020-03-31 11:00:00 4.9 7 Nordeste 13 Nordeste 0.2 1015.3 0.1 92
2020-03-31 10:00:00 4.3 3 Nordeste 9 Este 0.4 1015.1 0.2 90
2020-03-31 09:00:00 4 5 Este 9 Este 0.6 1015.1 0.2 91
2020-03-31 08:00:00 4 5 Sudeste 11 Sudeste 0.6 1015.2 0.2 89
2020-03-31 07:00:00 3.9 6 Sudeste 11 Sudeste 0 1014.9 -0.6 89
2020-03-31 06:00:00 4 8 Sur 11 Sur 0 1014.9 -1 84
2020-03-31 05:00:00 3.7 2 Sur 9 Sudeste 0 1015 -1.3 86
2020-03-31 04:00:00 3.7 5 Sudeste 8 Sudeste 0 1015.5 -1.2 89
2020-03-31 03:00:00 3.6 8 Sudeste 13 Sudeste 0 1015.9 -1.3 89
2020-03-31 02:00:00 4 12 Sudeste 15 Sudeste 0 1016.3 -1 86
2020-03-31 01:00:00 4.7 9 Sudeste 13 Sudeste 0 1016.7 -0.9 86
2020-03-31 00:00:00 4.8 9 Sudeste 13 Sudeste 0 1017.2 -0.2 87
2020-03-30 23:00:00 5.3 8 Sur 15 Sudoeste 0 1017.3 0.1 83
2020-03-30 22:00:00 5.3 9 Sur 15 Sudoeste 0 1017.6 0.3 83
2020-03-30 21:00:00 5.9 9 Sudoeste 13 Sudoeste 0 1017.4 0.1 83
2020-03-30 20:00:00 6.2 11 Sudeste 15 Sudeste 0 1017.2 -0.5 78
2020-03-30 19:00:00 6.7 4 Norte 13 Nordeste 0 1017.3 -0.8 76
2020-03-30 18:00:00 8.2 9 Norte 18 Norte 0 1017.3 -1.6 69
2020-03-30 17:00:00 7.1 9 Noroeste 21 Noroeste 0.1 1017.7 -1.7 75
2020-03-30 16:00:00 7.7 9 Oeste 17 Noroeste 0 1018.1 -1.8 66
2020-03-30 15:00:00 6.9 8 Sudoeste 22 Oeste 0 1018.9 -1.5 72
2020-03-30 14:00:00 6 14 Sudoeste 22 Sudoeste 0 1019.4 -1.8 87
2020-03-30 13:00:00 4.9 13 Sudoeste 18 Sudoeste 0 1019.9 -1.2 87
2020-03-30 12:00:00 4.4 14 Sudoeste 18 Sudoeste 0.9 1020.4 -0.7 95
2020-03-30 11:00:00 1.6 10 Sudoeste 24 Oeste 1.6 1021.2 0.2 96
2020-03-30 10:00:00 1.7 12 Sudoeste 17 Sudoeste 1.1 1021.1 0.6 96
2020-03-30 09:00:00 2.2 12 Sudoeste 24 Sudoeste 1.2 1021.1 0.2 94
2020-03-30 08:00:00 3 12 Sudoeste 28 Sudoeste 2 1021 -0.6 91
2020-03-30 07:00:00 4.5 12 Sudoeste 21 Sudoeste 0 1020.5 -1.5 92
2020-03-30 06:00:00 4.6 7 Sudoeste 13 Sur 0.3 1020.9 -1.7 91
2020-03-30 05:00:00 4.7 7 Sur 9 Sudoeste 0 1021.6 -1.6 91
2020-03-30 04:00:00 4.7 4 Oeste 8 Oeste 0 1022 -1.4 89
2020-03-30 03:00:00 4.8 5 Oeste 13 Este 0 1022.6 -0.7 87
2020-03-30 02:00:00 5.1 10 Este 26 Nordeste 0.6 1023.2 0.5 86
2020-03-30 01:00:00 5.4 17 Nordeste 37 Nordeste 0.7 1023.4 1.9 87
2020-03-30 00:00:00 5.6 20 Nordeste 41 Nordeste 1 1023.3 2.8 90
2020-03-29 23:00:00 6.9 27 Nordeste 35 Nordeste 0.2 1022.7 2.3 83
2020-03-29 22:00:00 8.9 26 Nordeste 39 Nordeste 0 1021.5 1.3 70
2020-03-29 21:00:00 10.2 21 Norte 33 Norte 0 1020.5 0.3 72
2020-03-29 20:00:00 11 14 Norte 26 Norte 0 1020.4 0.1 71
2020-03-29 19:00:00 11.3 15 Norte 28 Noroeste 0 1020.2 -0.2 75
2020-03-29 18:00:00 11.7 9 Noroeste 17 Noroeste 0 1020.2 -0.4 76
2020-03-29 17:00:00 12 10 Noroeste 21 Noroeste 0 1020.3 -0.5 76
2020-03-29 16:00:00 11.7 12 Norte 22 Norte 0 1020.4 -0.8 79
2020-03-29 15:00:00 11.9 13 Norte 22 Oeste 0.1 1020.6 -0.8 86
2020-03-29 14:00:00 13.3 12 Oeste 22 Oeste 0 1020.8 -0.6 73
2020-03-29 13:00:00 13.4 14 Oeste 22 Sudoeste 0 1021.2 0.1 72
2020-03-29 12:00:00 13.4 9 Sudoeste 17 Oeste 0 1021.4 0.4 71
2020-03-29 11:00:00 12.3 14 Sudoeste 21 Sudoeste 0 1021.4 0.6 71
2020-03-29 10:00:00 9.3 11 Sur 15 Sur 0 1021.1 0.6 79
2020-03-29 09:00:00 7 13 Sur 15 Sur 0 1021 0.7 86
2020-03-29 08:00:00 6.6 11 Sur 13 Sur 0 1020.8 0.3 87
2020-03-29 07:00:00 6.6 10 Sur 13 Sur 0 1020.5 -0.3 86
2020-03-29 06:00:00 6.8 10 Sur 13 Sur 0 1020.3 -1 87
2020-03-29 05:00:00 6.9 10 Sur 13 Sur 0 1020.5 -0.9 87
2020-03-29 03:00:00 7 6 Sur 9 Sur 0 1021.3 0.3 86
2020-03-29 01:00:00 7.7 8 Sur 11 Sur 0 1021.4 0.5 83
2020-03-29 00:00:00 8 7 Sur -- -- 0 1021.2 0.5 83
2020-03-28 23:00:00 9.1 8 Sur 9 Sur 0 1021 1.1 79
2020-03-28 22:00:00 9.5 6 Sur 8 Sudoeste 0 1020.9 1.6 78
2020-03-28 21:00:00 10.5 5 Sur 8 Sur 0 1020.7 1.9 73
2020-03-28 20:00:00 12.1 4 Noroeste 11 Norte 0 1019.9 1.4 65
2020-03-28 19:00:00 13.6 7 Nordeste 13 Norte 0 1019.3 0.8 57
2020-03-28 18:00:00 14 9 Norte 15 Norte 0 1018.8 0.2 55
2020-03-28 17:00:00 14.5 9 Norte 15 Nordeste 0 1018.5 -0.5 55
2020-03-28 16:00:00 15.7 12 Norte 18 Noroeste 0 1018.5 -0.7 60
2020-03-28 15:00:00 14.7 10 Norte 18 Nordeste 0 1018.6 -0.8 62
2020-03-28 14:00:00 15 14 Norte 18 Nordeste 0 1019 -0.2 62
2020-03-28 13:00:00 15.4 11 Norte 15 Nordeste 0 1019.2 0 54
2020-03-28 12:00:00 14.4 13 Norte 18 Norte 0 1019.4 0.7 61
2020-03-28 11:00:00 13.5 8 Nordeste 11 Nordeste 0 1019.2 0.9 59
2020-03-28 10:00:00 11.6 4 Sudeste 9 Sur 0 1019.2 1.4 62
2020-03-28 09:00:00 8.3 7 Sur 9 Sur 0 1018.7 1.3 78
2020-03-28 08:00:00 6.6 7 Sur 9 Sur 0 1018.3 1.1 83
2020-03-28 07:00:00 6.2 8 Sur 11 Sur 0 1017.8 0.8 86
2020-03-28 06:00:00 6.3 9 Sur 11 Sudeste 0 1017.4 0.2 85
2020-03-28 05:00:00 6.3 8 Sur 11 Sur 0 1017.2 0 87
2020-03-28 04:00:00 6.5 8 Sur 11 Sur 0 1017 -0.1 86
2020-03-28 03:00:00 6.8 7 Sur 11 Sur 0 1017.2 0.1 86
2020-03-28 02:00:00 7.2 10 Sur 13 Sur 0 1017.2 0.2 85
2020-03-28 01:00:00 7.7 8 Sur 13 Sur 0 1017.1 0.2 83
2020-03-28 00:00:00 8.4 9 Sur 15 Sur 0 1017.1 0.3 83
2020-03-27 23:00:00 8.3 8 Sur 9 Sur 0 1017 0.9 82
2020-03-27 22:00:00 8.7 7 Sudoeste 9 Sur 0 1016.9 1.3 81
2020-03-27 21:00:00 10.1 6 Sudoeste 11 Este 0 1016.8 1.7 72
2020-03-27 20:00:00 11.6 10 Este 13 Nordeste 0 1016.1 1.2 67
2020-03-27 19:00:00 12.2 8 Nordeste 17 Nordeste 0 1015.6 0.9 61
2020-03-27 18:00:00 12.3 13 Nordeste 18 Nordeste 0 1015.1 0.5 58
2020-03-27 17:00:00 12.7 10 Norte 22 Nordeste 0 1014.9 -0.2 58
2020-03-27 16:00:00 13.4 17 Norte 24 Norte 0 1014.7 -0.9 54
2020-03-27 15:00:00 14.2 12 Norte 18 Norte 0 1014.6 -1.5 51
2020-03-27 14:00:00 13.3 9 Norte 17 Norte 0 1015.1 -1.1 52
2020-03-27 13:00:00 12.6 14 Norte 18 Norte 0 1015.6 -0.5 55
2020-03-27 12:00:00 12.3 12 Nordeste 17 Nordeste 0 1016.1 0.3 54
2020-03-27 11:00:00 11.3 9 Norte 13 Nordeste 0 1016.2 1 54
2020-03-27 10:00:00 9.7 2 Sur 8 Sur 0 1016.1 1 57
2020-03-27 09:00:00 7.4 4 Este 11 Sudeste 0 1015.8 1.1 66
2020-03-27 08:00:00 5.2 9 Sur 13 Sur 0 1015.2 0.9 77
2020-03-27 07:00:00 4.9 8 Sudeste 13 Sur 0 1015.1 1.2 76
2020-03-27 06:00:00 4.8 10 Sur 13 Sur 0 1014.7 0.7 78
2020-03-27 05:00:00 5.5 10 Sur 15 Sur 0 1014.3 0.2 75
2020-03-27 04:00:00 5.7 11 Sur 15 Sur 0 1013.9 0.2 74
2020-03-27 03:00:00 5.9 12 Sur 15 Sur 0 1014 0.2 74
2020-03-27 02:00:00 6.4 12 Sur 15 Sur 0 1014.1 0.3 73
2020-03-27 01:00:00 7 12 Sur 15 Sur 0 1013.7 -0.2 69
2020-03-27 00:00:00 7.6 9 Sur 15 Sur 0 1013.8 0 67
2020-03-26 23:00:00 8.5 6 Sur 11 Sur 0 1013.8 0.6 61
2020-03-26 22:00:00 8.7 6 Sur 13 Sur 0 1013.9 1.1 60
2020-03-26 21:00:00 8.4 4 Sudoeste 9 Sudoeste 0 1013.8 1.2 58
2020-03-26 20:00:00 9.1 5 Oeste 11 Oeste 0 1013.2 1 55
2020-03-26 19:00:00 10.5 6 Oeste 15 Oeste 0 1012.8 0.5 46
2020-03-26 18:00:00 11.5 11 Noroeste 18 Noroeste 0 1012.6 0.5 43
2020-03-26 17:00:00 12.8 12 Noroeste 24 Oeste 0 1012.2 -0.2 41
2020-03-26 16:00:00 12.9 16 Noroeste 33 Noroeste 0 1012.3 -0.3 38
2020-03-26 15:00:00 13.5 17 Noroeste 30 Noroeste 0 1012.1 -0.9 36
2020-03-26 14:00:00 13.3 13 Noroeste 24 Oeste 0 1012.4 -0.7 32
2020-03-26 13:00:00 13.3 13 Noroeste 26 Norte 0 1012.6 -0.2 34
2020-03-26 12:00:00 12.7 16 Norte 28 Norte 0 1013 0.7 34
2020-03-26 11:00:00 12.1 18 Norte 32 Norte 0 1013.1 1.5 37
2020-03-26 10:00:00 12 16 Norte 28 Norte 0 1012.8 1.3 53
2020-03-26 09:00:00 11 19 Nordeste 35 Norte 0 1012.3 0.9 58
2020-03-26 08:00:00 11.2 20 Norte 35 Norte 0 1011.6 0.2 53
2020-03-26 07:00:00 11.1 20 Norte 35 Norte 0 1011.5 -0.3 55
2020-03-26 06:00:00 11.5 19 Norte 32 Norte 0 1011.4 -0.7 53
2020-03-26 05:00:00 11.8 12 Norte 24 Noroeste 0 1011.4 -1 56
2020-03-26 04:00:00 12.1 15 Norte 26 Norte 0 1011.8 -1.1 60
2020-03-26 03:00:00 12 10 Noroeste 28 Noroeste 0 1012.1 -1.7 61
2020-03-26 02:00:00 11.2 24 Sudoeste 37 Oeste 0 1012.4 -1.8 72
2020-03-26 01:00:00 10.9 22 Sudoeste 32 Oeste 0 1012.9 -1.4 69
2020-03-26 00:00:00 10.7 17 Sudoeste 30 Sudoeste 0 1013.8 -0.8 64
2020-03-25 23:00:00 10.4 20 Sudoeste 28 Sudoeste 0 1014.2 -0.1 65
2020-03-25 22:00:00 10.4 20 Sudoeste 26 Sudoeste 0 1014.3 0.1 64
2020-03-25 21:00:00 10.4 12 Oeste 24 Sudoeste 0 1014.6 0.7 63
2020-03-25 20:00:00 11 16 Sudoeste 22 Sudoeste 0 1014.3 0.4 62
2020-03-25 19:00:00 11.6 12 Oeste 28 Oeste 0 1014.2 0.3 62
2020-03-25 18:00:00 13 14 Oeste 28 Noroeste 0 1013.9 0 60
2020-03-25 17:00:00 13.9 16 Oeste 28 Noroeste 0 1013.9 -0.5 55
2020-03-25 16:00:00 14.8 16 Oeste 32 Oeste 0 1013.9 -0.7 53
2020-03-25 15:00:00 15.5 19 Oeste 32 Sudoeste 0 1013.9 -0.8 60
2020-03-25 14:00:00 15.6 14 Noroeste 28 Noroeste 0 1014.4 -0.1 64
2020-03-25 13:00:00 15.9 15 Noroeste 26 Noroeste 0 1014.6 -0.1 68
2020-03-25 12:00:00 14.6 16 Oeste 28 Oeste 0 1014.7 0.2 74
2020-03-25 11:00:00 14.5 14 Oeste 28 Sudoeste 0 1014.5 -0.4 73
2020-03-25 10:00:00 14.5 10 Sudoeste 22 Sudoeste 0 1014.7 0 66
2020-03-25 09:00:00 11.3 15 Sudoeste 21 Sudoeste 0 1014.5 0 76
2020-03-25 08:00:00 8.7 9 Sur 11 Sur 0 1014.9 0.3 90
2020-03-25 07:00:00 8 7 Sur 13 Sudoeste 0 1014.7 -0.2 91
2020-03-25 06:00:00 8.9 5 Sur 13 Sur 0 1014.5 -0.9 91
2020-03-25 05:00:00 8.7 4 Sudoeste 9 Sudoeste 0 1014.6 -1.2 93
2020-03-25 04:00:00 8.6 5 Sudoeste 8 Sudoeste 0 1014.9 -1.1 92
2020-03-25 03:00:00 9.5 5 Sur 9 Sur 0 1015.4 -0.8 91
2020-03-25 02:00:00 9.8 6 Sur 9 Sur 0 1015.8 -0.6 91
2020-03-25 01:00:00 10.5 5 Sur 11 Sur 0 1016 -0.5 90
2020-03-25 00:00:00 11.1 6 Sur 9 Sur 0 1016.2 -0.4 88
2020-03-24 23:00:00 11.7 5 Sur 11 Sudoeste 0 1016.4 0.1 87
2020-03-24 22:00:00 12.3 5 Sudoeste 11 Sur 0 1016.5 0.2 86
2020-03-24 21:00:00 12.8 6 Sudoeste 9 Sur 0 1016.6 0.3 85
2020-03-24 20:00:00 13.9 5 Oeste 8 Oeste 0 1016.3 0.1 80
2020-03-24 19:00:00 15.2 2 Noroeste 9 Nordeste 0 1016.3 -0.2 76
2020-03-24 18:00:00 15.3 5 Nordeste 18 Norte 0 1016.3 -1 80
2020-03-24 17:00:00 15.6 14 Nordeste 21 Nordeste 0 1016.2 -1.5 80
2020-03-24 16:00:00 17.1 13 Nordeste 15 Nordeste 0 1016.5 -1.8 62
2020-03-24 15:00:00 16.1 9 Norte 17 Norte 0 1017.3 -1.6 75
2020-03-24 14:00:00 15.5 15 Nordeste 22 Nordeste 0 1017.7 -1.2 77
2020-03-24 13:00:00 15.1 14 Nordeste 21 Nordeste 0 1018.3 -0.7 81
2020-03-24 12:00:00 15.3 17 Nordeste 22 Norte 0 1018.9 -0.3 82
2020-03-24 11:00:00 15.6 11 Nordeste 13 Nordeste 0 1018.9 -0.4 82
2020-03-24 10:00:00 14.4 6 Nordeste 8 Nordeste 0 1019 0.2 78
2020-03-24 09:00:00 12.2 5 Sur 9 Sur 0 1019.2 0.7 89
2020-03-24 08:00:00 10.5 6 Sur 9 Sur 0 1019.3 0.8 94
2020-03-24 07:00:00 10.4 3 Norte 8 Norte 0 1018.8 0.2 93
2020-03-24 06:00:00 10.3 7 Sur 9 Sudoeste 0 1018.5 -0.2 94
2020-03-24 05:00:00 10 -- -- -- -- 0 1018.5 -0.4 95
2020-03-24 04:00:00 9.4 3 Sudeste 8 Sudoeste 0 1018.6 -0.3 95
2020-03-24 03:00:00 9.5 5 Sur 8 Sur 0 1018.7 -0.4 94
2020-03-24 02:00:00 10.2 5 Sur -- -- 0 1018.9 -0.3 94
2020-03-24 01:00:00 11.3 3 Sudoeste 8 Sudoeste 0 1018.9 -0.1 92
2020-03-24 00:00:00 12.4 5 Sudeste 9 Sur 0 1019.1 0.1 89
2020-03-23 23:00:00 12.8 8 Sur 11 Sur 0 1019.2 0.5 90
2020-03-23 22:00:00 13.1 0 Calma 5 Oeste 0 1019 0.5 89
2020-03-23 21:00:00 13.6 0 Calma 8 Nordeste 0 1019 0.9 87
2020-03-23 20:00:00 13.7 5 Este 11 Nordeste 0 1018.7 1 87
2020-03-23 19:00:00 13.8 9 Nordeste 15 Nordeste 0 1018.5 0.8 86
2020-03-23 18:00:00 14 12 Nordeste 15 Nordeste 0 1018.1 0.2 84
2020-03-23 17:00:00 14.5 9 Norte 18 Nordeste 0 1017.7 -0.8 78
2020-03-23 16:00:00 14.5 14 Nordeste 18 Nordeste 0 1017.7 -1.3 78
2020-03-23 15:00:00 15.3 12 Norte 17 Nordeste 0 1017.9 -1.5 74
2020-03-23 14:00:00 14.6 10 Norte 17 Nordeste 0 1018.5 -0.8 79
2020-03-23 13:00:00 14.6 9 Nordeste 13 Nordeste 0 1019 -0.1 77
2020-03-23 12:00:00 13.8 6 Norte 13 Norte 0 1019.4 0.8 81
2020-03-23 11:00:00 13.9 8 Nordeste 11 Nordeste 0 1019.3 1.2 79
2020-03-23 10:00:00 13 0 Calma 5 Sur 0 1019.1 1.6 84
2020-03-23 09:00:00 12 3 Sur 8 Sudeste 0 1018.6 1.5 87
2020-03-23 08:00:00 11.5 5 Sudeste -- -- 0 1018.1 1.4 89
2020-03-23 07:00:00 11.8 4 Sur 11 Sudeste 0 1017.5 1 89
2020-03-23 06:00:00 11.9 9 Sudoeste 13 Sudoeste 0 1017.1 0.6 85
2020-03-23 05:00:00 11.9 8 Sudoeste 13 Sudoeste 0 1016.7 0.3 87
2020-03-23 04:00:00 12 11 Sudoeste 15 Sudoeste 0 1016.5 0.3 88
2020-03-23 03:00:00 11.8 6 Sur 9 Sur 0 1016.5 0.2 90
2020-03-23 02:00:00 11.4 8 Sur 13 Sudoeste 0 1016.4 0.5 90
2020-03-23 01:00:00 11.3 9 Sudoeste 11 Sudoeste 0 1016.2 0.6 91
2020-03-23 00:00:00 10.6 5 Sudoeste 8 Sudoeste 0 1016.3 1 91
2020-03-22 23:00:00 10.4 5 Sudoeste -- -- 0 1015.9 1.3 90
2020-03-22 22:00:00 11.2 6 Sudoeste 11 Sur 0 1015.6 1.6 88
2020-03-22 21:00:00 12.1 6 Sudoeste 9 Sur 0 1015.3 1.9 86
2020-03-22 20:00:00 12.7 4 Oeste 9 Oeste 0 1014.6 1.2 82
2020-03-22 19:00:00 14.2 6 Sudoeste 13 Sudoeste 0 1014 0.8 76
2020-03-22 18:00:00 14.8 6 Oeste 17 Oeste 0 1013.4 0 72
2020-03-22 17:00:00 15 9 Noroeste 21 Oeste 0 1013.4 -0.1 74
2020-03-22 16:00:00 15.4 12 Oeste 18 Oeste 0 1013.2 -0.4 70
2020-03-22 15:00:00 14.8 10 Noroeste 17 Noroeste 0 1013.4 -0.2 74
2020-03-22 14:00:00 14.6 10 Noroeste 17 Norte 0 1013.5 0.1 74
2020-03-22 13:00:00 14.4 8 Oeste 18 Noroeste 0 1013.6 0.6 75
2020-03-22 12:00:00 14.9 13 Noroeste 21 Noroeste 0 1013.6 1 71
2020-03-22 11:00:00 14.6 11 Oeste 18 Oeste 0 1013.4 1 73
2020-03-22 10:00:00 13.8 11 Sudoeste 17 Sudoeste 0 1013 1.1 81
2020-03-22 09:00:00 12.3 10 Sudoeste 13 Sudoeste 0 1012.6 1 87
2020-03-22 08:00:00 10.7 6 Sur 8 Sur 0 1012.4 1.4 87
2020-03-22 07:00:00 10 5 Sudoeste -- -- 0 1011.9 1.3 89
2020-03-22 06:00:00 10.1 3 Sudoeste 9 Sur 0 1011.6 1 85
2020-03-22 05:00:00 10.3 2 Este 8 Sudoeste 0 1011 0.6 85
2020-03-22 04:00:00 10.3 6 Sur 9 Sur 0 1010.6 0.2 82
2020-03-22 03:00:00 9.9 4 Oeste 8 Sudoeste 0 1010.6 0.2 83
2020-03-22 02:00:00 10.3 5 Sudoeste 13 Sur 0 1010.4 0.1 83
2020-03-22 01:00:00 10.8 6 Sudoeste 9 Sudoeste 0 1010.4 0.1 85
2020-03-22 00:00:00 11 5 Oeste 8 Oeste 0 1010.4 0.4 84
2020-03-21 23:00:00 12.1 5 Sudoeste 11 Sur 0 1010.3 0.8 81
2020-03-21 22:00:00 12.4 6 Sudoeste 9 Sur 0 1010.3 1.3 82
2020-03-21 21:00:00 13.3 6 Sur 8 Sur 0 1010 1.2 77
2020-03-21 20:00:00 14.5 5 Noroeste 9 Nordeste 0 1009.5 0.8 71
2020-03-21 19:00:00 16 2 Nordeste 13 Nordeste 0 1009 0.2 67
2020-03-21 18:00:00 16.2 3 Nordeste 13 Nordeste 0 1008.8 -0.3 71
2020-03-21 17:00:00 16.8 9 Norte 17 Nordeste 0 1008.7 -0.7 71
2020-03-21 16:00:00 17.9 13 Nordeste 17 Nordeste 0 1008.8 -1.2 61
2020-03-21 15:00:00 18.3 12 Norte 26 Norte 0 1009.1 -1.5 59
2020-03-21 14:00:00 20.5 13 Norte 21 Norte 0 1009.4 -1.6 40
2020-03-21 13:00:00 20.1 10 Norte 17 Este 0 1010 -1.2 37
2020-03-21 12:00:00 19.1 12 Sudeste 24 Este 0 1010.6 -0.6 36
2020-03-21 11:00:00 17.8 2 Sudeste 13 Sur 0 1011 -0.3 37
2020-03-21 10:00:00 16.5 6 Sur 17 Sur 0 1011.2 0 41
2020-03-21 09:00:00 13.8 12 Sur 21 Sur 0 1011.2 -0.2 57
2020-03-21 08:00:00 11.3 8 Sur 15 Sudoeste 0 1011.3 -0.3 68
2020-03-21 07:00:00 9.6 6 Sudoeste 11 Sur 0 1011.2 -0.5 79
2020-03-21 06:00:00 9.6 7 Sur 15 Sur 0 1011.4 -0.9 80
2020-03-21 05:00:00 10.2 7 Sur 15 Sur 0 1011.6 -1.4 76
2020-03-21 04:00:00 10.6 11 Sudoeste 15 Sudoeste 0 1011.7 -1.7 75
2020-03-21 03:00:00 10.3 3 Oeste 9 Sudoeste 0 1012.3 -1.3 79
2020-03-21 02:00:00 11.1 3 Sudoeste 9 Noroeste 0 1013 -0.8 75
2020-03-21 01:00:00 12.5 3 Oeste 11 Sur 0 1013.4 -0.6 68
2020-03-21 00:00:00 14.3 5 Oeste 15 Sudeste 0 1013.6 -0.2 56
2020-03-20 23:00:00 16.4 10 Sudeste 18 Sudeste 0 1013.8 0.1 46
2020-03-20 22:00:00 14.9 9 Sudeste 15 Sudeste 0 1014 0.5 57
2020-03-20 21:00:00 15.9 8 Sudoeste 21 Sudeste 0 1013.8 0.6 59
2020-03-20 20:00:00 17.7 14 Sudeste 18 Sudeste 0 1013.7 0.5 46
2020-03-20 19:00:00 17 9 Norte 22 Norte 0 1013.5 0.3 64
2020-03-20 18:00:00 19.1 5 Norte 17 Norte 0 1013.2 -0.5 53
2020-03-20 17:00:00 21.6 6 Oeste 18 Sudeste 0 1013.2 -0.9 37
2020-03-20 16:00:00 21.8 8 Sudoeste 30 Sur 0 1013.2 -1.2 33
2020-03-20 15:00:00 21.4 19 Sur 33 Sur 0 1013.7 -1.1 33
2020-03-20 14:00:00 20.8 18 Sur 30 Sur 0 1014.1 -0.8 33
2020-03-20 13:00:00 20.4 23 Sudeste 32 Sudeste 0 1014.4 -0.5 35
2020-03-20 12:00:00 19.6 19 Sudeste 30 Sudeste 0 1014.8 0.2 36
2020-03-20 11:00:00 18.6 17 Sudeste 28 Sudeste 0 1014.9 0.5 37
2020-03-20 10:00:00 17.8 13 Sudeste 32 Sur 0 1014.9 0.8 37
2020-03-20 09:00:00 16.8 15 Sudeste 30 Sur 0 1014.6 0.5 38
2020-03-20 08:00:00 13.2 14 Sudeste 26 Sudeste 0 1014.4 0.1 53
2020-03-20 07:00:00 14.6 9 Sur 30 Sur 0 1014.1 -0.2 43
2020-03-20 06:00:00 13.9 12 Sur 26 Sudeste 0 1014.1 -0.7 48
2020-03-20 05:00:00 12 13 Sur 21 Sur 0 1014.3 -1.2 64
2020-03-20 04:00:00 15.3 7 Sur 22 Sur 0 1014.3 -1.4 45
2020-03-20 03:00:00 16.6 10 Sur 24 Sur 0 1014.8 -1.2 43
2020-03-20 02:00:00 17 10 Sudeste 18 Este 0 1015.5 -0.7 45
2020-03-20 01:00:00 17 10 Este 21 Sudeste 0 1015.7 -0.7 44
2020-03-20 00:00:00 17.3 9 Este 17 Este 0 1016 -0.2 39
2020-03-19 23:00:00 18.2 9 Sudeste 26 Sudeste 0 1016.2 0.2 38
2020-03-19 22:00:00 18.6 12 Sudeste 22 Sudeste 0 1016.4 0.4 41
2020-03-19 21:00:00 17.2 6 Sur 15 Sudoeste 0 1016.2 0.4 63
2020-03-19 20:00:00 19.2 6 Sudeste 18 Sudeste 0 1016 0 50
2020-03-19 19:00:00 20.1 12 Sudeste 18 Sudeste 0 1016 -0.3 49
2020-03-19 18:00:00 21.4 13 Sudeste 18 Sudeste 0 1015.8 -1 44
2020-03-19 17:00:00 22.4 18 Sudeste 32 Sudeste 0 1016 -1.7 39
2020-03-19 16:00:00 21.3 6 Nordeste 18 Norte 0 1016.3 -2.3 42
2020-03-19 15:00:00 17.4 10 Norte 17 Norte 0 1016.8 -2.5 76
2020-03-19 14:00:00 15.1 10 Norte 18 Norte 0 1017.7 -2.2 87
2020-03-19 13:00:00 14.3 10 Norte 18 Norte 0 1018.6 -1.5 90
2020-03-19 12:00:00 14.3 13 Norte 18 Nordeste 0 1019.3 -0.5 88
2020-03-19 11:00:00 15.8 12 Nordeste 17 Nordeste 0 1019.9 0.1 81
2020-03-19 10:00:00 13.1 0 Calma 5 Este 0 1020.1 0.3 93
2020-03-19 09:00:00 11.6 0 Calma 5 Sur 0 1019.8 0 97
2020-03-19 08:00:00 10 2 Sur 5 Sudoeste 0 1019.8 0 97
2020-03-19 07:00:00 10 2 Oeste 5 Oeste 0 1019.8 -0.2 97
2020-03-19 06:00:00 10 0 Calma 5 Sudoeste 0 1019.8 -0.9 97
2020-03-19 05:00:00 10.3 0 Calma 4 Noroeste 0 1019.8 -1.5 97
2020-03-19 04:00:00 10.4 0 Calma 5 Sur 0 1020 -1.5 96
2020-03-19 03:00:00 10.5 0 Calma 5 Sudoeste 0 1020.7 -1.1 96
2020-03-19 02:00:00 10.7 0 Calma 5 Sudoeste 0 1021.3 -0.9 96
2020-03-19 01:00:00 11.2 3 Oeste 5 Sudoeste 0 1021.5 -1 95
2020-03-19 00:00:00 11.7 3 Sudoeste 5 Sudoeste 0 1021.8 -0.9 95
2020-03-18 23:00:00 12.1 3 Oeste 5 Noroeste 0 1022.2 -0.6 94
2020-03-18 22:00:00 12.9 4 Sudoeste 5 Sur 0 1022.5 -0.2 92
2020-03-18 21:00:00 13.6 4 Sur 5 Sur 0 1022.7 0.1 90
2020-03-18 20:00:00 14.4 0 Calma 8 Norte 0 1022.8 0.1 87
2020-03-18 19:00:00 15.5 6 Norte 11 Norte 0 1022.7 -0.5 83
2020-03-18 18:00:00 16.3 7 Nordeste 9 Nordeste 0 1022.6 -1 77
2020-03-18 17:00:00 16.9 6 Norte 13 Norte 0 1022.7 -1.6 73
2020-03-18 16:00:00 17.6 8 Norte 13 Norte 0 1023.2 -2 71
2020-03-18 15:00:00 17.3 9 Norte 13 Norte 0 1023.6 -2.4 69
2020-03-18 14:00:00 16 8 Norte 11 Norte 0 1024.3 -2.2 76
2020-03-18 13:00:00 15.5 8 Norte 15 Norte 0 1025.2 -1.4 78
2020-03-18 12:00:00 14.6 8 Norte 13 Norte 0 1026 -0.6 81
2020-03-18 11:00:00 13.1 3 Nordeste 8 Nordeste 0 1026.5 0.1 91
2020-03-18 10:00:00 11.2 3 Sur 5 Sur 0 1026.6 0.2 98
2020-03-18 09:00:00 9.8 0 Calma 5 Oeste 0 1026.6 0.1 98
2020-03-18 08:00:00 8.5 3 Sudoeste 9 Sudoeste 0 1026.4 -0.4 98
2020-03-18 07:00:00 8.2 8 Sur -- -- 0 1026.4 -0.6 98
2020-03-18 06:00:00 8.4 2 Sudoeste 8 Sudoeste 0 1026.5 -1.1 98
2020-03-18 05:00:00 8.2 0 Calma 8 Oeste 0 1026.8 -1.3 98
2020-03-18 04:00:00 8.4 3 Oeste 8 Sudoeste 0 1027 -1.7 97
2020-03-18 03:00:00 8.5 6 Sudoeste 8 Sur 0 1027.6 -1.6 97
2020-03-18 02:00:00 9.2 5 Sur 8 Sur 0 1028.1 -1.4 97
2020-03-18 01:00:00 9.3 4 Sur 5 Sur 0 1028.7 -1.2 96
2020-03-18 00:00:00 10.5 2 Sudeste 8 Este 0 1029.2 -0.5 96
2020-03-17 23:00:00 11 0 Calma 8 Norte 0 1029.5 0.2 95
2020-03-17 22:00:00 11.7 2 Norte 8 Norte 0 1029.9 0.8 94
2020-03-17 21:00:00 12.7 0 Calma 5 Norte 0 1029.7 0.7 93
2020-03-17 20:00:00 12.8 4 Norte 8 Norte 0 1029.3 0.5 93
2020-03-17 19:00:00 13 5 Norte 11 Norte 0 1029.1 0.4 91
2020-03-17 18:00:00 13.2 8 Norte 11 Norte 0 1029 0 89
2020-03-17 17:00:00 13.8 7 Norte 11 Nordeste 0 1028.8 -0.5 86
2020-03-17 16:00:00 13.6 5 Norte 8 Norte 0 1028.7 -0.7 86
2020-03-17 15:00:00 12.9 6 Este 9 Sudeste 0 1029 -0.4 92
2020-03-17 14:00:00 12.8 3 Nordeste 9 Nordeste 0 1029.3 0.2 92
2020-03-17 13:00:00 12.8 6 Nordeste 11 Nordeste 0 1029.4 0.6 92
2020-03-17 12:00:00 13 8 Norte 13 Norte 0 1029.4 1.1 91
2020-03-17 11:00:00 12.9 5 Nordeste 8 Este 0 1029.1 1.5 93
2020-03-17 10:00:00 12.1 5 Sur 11 Sudeste 0 1028.8 1.4 97
2020-03-17 09:00:00 11.6 5 Sudoeste 8 Sur 0 1028.3 1.5 98
2020-03-17 08:00:00 11.2 3 Sur 8 Sur 0 1027.6 1.5 98
2020-03-17 07:00:00 11.2 3 Sur 5 Sur 0.3 1027.4 1.7 98
2020-03-17 06:00:00 11.2 5 Sudoeste 8 Sur 0 1026.8 1.1 98
2020-03-17 05:00:00 11.2 5 Sudoeste 5 Sudoeste 0 1026.1 0.6 97
2020-03-17 04:00:00 11.3 5 Sur -- -- 0 1025.7 0.3 97
2020-03-17 03:00:00 11.3 5 Sur 5 Sur 0 1025.7 0.3 97
2020-03-17 02:00:00 11.4 5 Sur 8 Sudoeste 0 1025.5 0.6 97
2020-03-17 01:00:00 11.5 5 Sur 8 Sur 0 1025.4 1.3 96
2020-03-17 00:00:00 11.6 5 Sur 8 Este 0 1025.4 2.2 95
2020-03-16 23:00:00 11.8 6 Este 15 Norte 0 1024.9 2.3 93
2020-03-16 22:00:00 11.7 9 Norte 21 Norte 0 1024.1 2.4 92
2020-03-16 21:00:00 11.6 11 Norte 21 Nordeste 0 1023.2 2.2 92
2020-03-16 20:00:00 11.5 13 Nordeste 22 Nordeste 0 1022.6 2 93
2020-03-16 19:00:00 11.5 10 Norte 18 Norte 0.7 1021.7 1.5 92
2020-03-16 18:00:00 11.4 11 Nordeste 18 Nordeste 0.4 1021 1.3 91
2020-03-16 17:00:00 11.6 10 Norte 17 Noroeste 0 1020.6 1.2 91
2020-03-16 16:00:00 12 6 Norte 15 Norte 0 1020.2 1.2 87
2020-03-16 15:00:00 11.7 0 Calma 9 Norte 0.1 1019.7 1.4 91
2020-03-16 14:00:00 11.4 4 Norte 8 Norte 0 1019.4 1.8 91
2020-03-16 13:00:00 11.3 5 Norte 11 Nordeste 0 1019 2.4 93
2020-03-16 12:00:00 10.9 5 Norte 9 Norte 0.5 1018.3 2.8 95
2020-03-16 11:00:00 10.5 3 Oeste 9 Sudoeste 1.2 1017.6 3.2 95
2020-03-16 10:00:00 10.3 5 Sudoeste 9 Sudoeste 0.5 1016.6 2.8 96
2020-03-16 09:00:00 10 0 Calma 8 Sudoeste 0.4 1015.5 2.3 95
2020-03-16 08:00:00 9.7 7 Sur 17 Sur 1.8 1014.4 1.7 95
2020-03-16 07:00:00 10.3 7 Sudoeste 9 Sudoeste 2.3 1013.8 1.4 96
2020-03-16 06:00:00 10.1 9 Nordeste 30 Oeste 3.5 1013.2 0.5 95
2020-03-16 05:00:00 9.7 17 Oeste 41 Noroeste 10.3 1012.7 -0.1 96
2020-03-16 04:00:00 9.9 24 Oeste 42 Noroeste 6.8 1012.4 -0.4 95
2020-03-16 03:00:00 10 14 Oeste 35 Oeste 3.6 1012.7 -0.5 94
2020-03-16 02:00:00 9.9 18 Oeste 41 Oeste 3.4 1012.8 -0.4 94
2020-03-16 01:00:00 10.1 13 Oeste 41 Sudoeste 3.8 1012.8 0 95
2020-03-16 00:00:00 10.1 16 Sudoeste 28 Sudoeste 0.6 1013.2 0.7 94
2020-03-15 23:00:00 11 12 Sudoeste 15 Sudoeste 1.5 1013.2 1.4 94
2020-03-15 22:00:00 11.3 6 Sudoeste 22 Oeste 8.4 1012.8 1.6 92
2020-03-15 21:00:00 11.7 8 Sudoeste 18 Noroeste 2.7 1012.5 1 90
2020-03-15 20:00:00 12.2 5 Oeste 22 Oeste 6.3 1011.8 0.2 89
2020-03-15 19:00:00 12.9 9 Oeste 18 Noroeste 0 1011.2 -0.3 80
2020-03-15 18:00:00 13.1 9 Noroeste 22 Oeste 0 1011.5 0 79
2020-03-15 17:00:00 13.3 13 Noroeste 26 Noroeste 0 1011.6 -0.1 80
2020-03-15 16:00:00 14.1 17 Oeste 30 Noroeste 0 1011.5 0.1 79
2020-03-15 15:00:00 14.9 18 Oeste 37 Oeste 0 1011.5 0.1 75
2020-03-15 14:00:00 16.8 18 Noroeste 33 Oeste 0 1011.7 0.4 69
2020-03-15 13:00:00 17.8 27 Oeste 39 Noroeste 0 1011.4 0 62
2020-03-15 12:00:00 22.3 16 Sudoeste 26 Sudoeste 0 1011.4 -0.2 28
2020-03-15 11:00:00 20.4 9 Sudoeste 21 Oeste 0 1011.3 -0.6 29
2020-03-15 10:00:00 17.9 7 Sudoeste 17 Sudoeste 0 1011.4 -1.1 40
2020-03-15 09:00:00 9.1 10 Sudoeste 13 Sudoeste 0 1011.6 -1.5 84
2020-03-15 08:00:00 4.5 5 Oeste 11 Sudoeste 0 1011.9 -1.8 93
2020-03-15 07:00:00 4.3 2 Sudoeste 9 Sudoeste 0 1012.5 -2.1 93
2020-03-15 06:00:00 4.2 5 Sudoeste 9 Sudoeste 0 1013.1 -2.8 92
2020-03-15 05:00:00 4.7 3 Sur 8 Sudoeste 0 1013.7 -3.4 92
2020-03-15 04:00:00 5.3 0 Calma 9 Sur 0 1014.6 -3.6 91
2020-03-15 03:00:00 5.4 4 Sudoeste 8 Sudoeste 0 1015.9 -3.3 90
2020-03-15 02:00:00 6.2 5 Sudoeste 8 Sudoeste 0 1017.1 -2.9 90
2020-03-15 01:00:00 6.6 3 Sur 5 Sur 0 1018.2 -2.4 88
2020-03-15 00:00:00 7.8 6 Sur 15 Sur 0 1019.2 -1.7 86
2020-03-14 23:00:00 8.7 6 Sur 9 Sur 0 1020 -1.1 81
2020-03-14 22:00:00 8.8 0 Calma -- -- 0 1020.6 -0.7 82
2020-03-14 21:00:00 10.2 3 Norte 8 Nordeste 0 1020.9 -0.6 75
2020-03-14 20:00:00 11.3 6 Nordeste 13 Nordeste 0 1021.1 -0.8 70
2020-03-14 19:00:00 12 11 Nordeste 13 Nordeste 0 1021.3 -1 64
2020-03-14 18:00:00 13.1 8 Norte 15 Nordeste 0 1021.5 -1.3 61
2020-03-14 17:00:00 13.5 11 Nordeste 17 Norte 0 1021.9 -1.8 62
2020-03-14 16:00:00 13.5 11 Norte 15 Norte 0 1022.3 -2 62
2020-03-14 15:00:00 13.4 11 Norte 17 Norte 0 1022.8 -1.7 64
2020-03-14 14:00:00 13 12 Nordeste 17 Norte 0 1023.7 -1 66
2020-03-14 13:00:00 13.1 12 Nordeste 17 Nordeste 0 1024.3 -0.1 64
2020-03-14 12:00:00 13.4 9 Nordeste 13 Norte 0 1024.5 0.4 60
2020-03-14 11:00:00 12.7 6 Nordeste 9 Nordeste 0 1024.7 1.2 62
2020-03-14 10:00:00 10.3 4 Sur 9 Sudeste 0 1024.4 1.1 74
2020-03-14 09:00:00 8.2 5 Sudeste 9 Sur 0 1024.1 1.2 84
2020-03-14 08:00:00 7.3 5 Sudeste 8 Sudeste 0 1023.5 1 89
2020-03-14 07:00:00 6.9 8 Sur 11 Sur 0 1023.3 0.6 90
2020-03-14 06:00:00 7.3 5 Sur 8 Sur 0 1022.9 -0.5 88
2020-03-14 05:00:00 8.2 5 Sur 9 Sudeste 0 1022.5 -1.1 86
2020-03-14 04:00:00 8.2 5 Sur 8 Sur 0 1022.7 -1 86
2020-03-14 03:00:00 8.1 3 Sudeste -- -- 0 1023.4 -0.3 86
2020-03-14 02:00:00 8.3 6 Sur 8 Sur 0 1023.6 -0.1 87
2020-03-14 01:00:00 8.5 0 Calma 5 Sudeste 0 1023.7 0.1 84
2020-03-14 00:00:00 9.9 2 Sur 8 Sudoeste 0 1023.7 0.8 79
2020-03-13 23:00:00 10.4 3 Sur 9 Sur 0 1023.7 1 77
2020-03-13 22:00:00 10.1 3 Oeste 8 Oeste 0 1023.6 0.8 75
2020-03-13 21:00:00 11 5 Oeste 8 Sudeste 0 1022.9 0.2 72
2020-03-13 20:00:00 11.4 7 Nordeste 9 Nordeste 0 1022.7 -0.2 66
2020-03-13 19:00:00 12 7 Norte 13 Norte 0 1022.8 -0.3 64
2020-03-13 18:00:00 12.2 9 Norte 15 Norte 0 1022.7 -0.7 64
2020-03-13 17:00:00 12.9 10 Norte 18 Norte 0 1022.9 -0.9 63
2020-03-13 16:00:00 13.1 12 Norte 21 Norte 0 1023.1 -1.3 63
2020-03-13 15:00:00 13 13 Norte 22 Norte 0 1023.4 -1.3 65
2020-03-13 14:00:00 13.6 14 Norte 21 Nordeste 0 1023.8 -1 56
2020-03-13 13:00:00 13.3 17 Nordeste 28 Nordeste 0 1024.4 -0.5 55
2020-03-13 12:00:00 12.2 19 Nordeste 28 Nordeste 0 1024.7 -0.1 59
2020-03-13 11:00:00 11.7 16 Nordeste 21 Nordeste 0 1024.8 0.2 72
2020-03-13 10:00:00 11.4 12 Este 21 Este 0 1024.9 0.2 75
2020-03-13 09:00:00 10.5 12 Nordeste 17 Este 0 1024.8 0.1 83
2020-03-13 08:00:00 10.3 8 Nordeste 13 Nordeste 0 1024.6 0.2 85
2020-03-13 07:00:00 10.4 10 Este 13 Este 0 1024.7 0.1 83
2020-03-13 06:00:00 10.6 10 Este 15 Este 0 1024.7 -0.2 84
2020-03-13 05:00:00 10.5 2 Este 8 Sudeste 0 1024.4 -0.5 86
2020-03-13 04:00:00 10.6 4 Sudeste 15 Sudeste 0 1024.6 -0.3 86
2020-03-13 03:00:00 11.2 12 Norte 18 Norte 0 1024.9 -0.1 83
2020-03-13 02:00:00 11.7 13 Nordeste 22 Nordeste 0 1024.9 0.1 75
2020-03-13 01:00:00 11.8 12 Nordeste 24 Norte 0 1024.9 0.6 78
2020-03-13 00:00:00 11.7 14 Nordeste 24 Nordeste 0 1025 1.2 90
2020-03-12 23:00:00 11.6 14 Nordeste 21 Nordeste 0.3 1024.8 1.4 95
2020-03-12 22:00:00 11.6 0 Calma 24 Norte 0.2 1024.3 1.4 95
2020-03-12 21:00:00 12 12 Norte 22 Norte 0 1023.8 1.1 96
2020-03-12 20:00:00 13 8 Norte 17 Norte 0.1 1023.4 1.1 93
2020-03-12 19:00:00 13.1 6 Norte 11 Nordeste 0 1022.9 0.7 92
2020-03-12 18:00:00 13.2 10 Norte 15 Nordeste 0 1022.7 0.4 92
2020-03-12 17:00:00 13.5 8 Norte 11 Nordeste 0 1022.3 -0.5 90
2020-03-12 16:00:00 13.8 6 Norte 11 Nordeste 0 1022.2 -1.3 86
2020-03-12 15:00:00 14.1 8 Norte 13 Norte 0 1022.3 -1.2 87
2020-03-12 14:00:00 14.3 4 Norte 9 Norte 0 1022.8 -0.8 84
2020-03-12 13:00:00 14.3 8 Norte 13 Norte 0 1023.5 0 83
2020-03-12 12:00:00 13.7 0 Calma 5 Sudoeste 0 1023.5 0.1 89
2020-03-12 11:00:00 13 0 Calma 8 Sur 0 1023.6 0.9 93
2020-03-12 10:00:00 12.7 4 Sur 13 Sudeste 0 1023.5 0.9 94
2020-03-12 09:00:00 12.3 3 Este 9 Sudoeste 0 1023.4 0.8 93
2020-03-12 08:00:00 12 9 Sudoeste 13 Sudoeste 0 1022.7 0.6 94
2020-03-12 07:00:00 12.1 9 Sudoeste 11 Sudoeste 0 1022.6 0.5 94
2020-03-12 06:00:00 12 7 Oeste 11 Sudoeste 0 1022.6 0.4 93
2020-03-12 05:00:00 12 8 Sudoeste 13 Sudoeste 0 1022.1 -0.2 93
2020-03-12 04:00:00 12.1 10 Sudoeste 15 Sudoeste 0 1022.1 0.1 93
2020-03-12 03:00:00 12 8 Sudoeste 11 Sudoeste 0 1022.2 -0.1 93
2020-03-12 02:00:00 11.7 0 Calma 15 Oeste 0 1022.3 0.4 93
2020-03-12 01:00:00 11.8 9 Oeste 17 Oeste 0 1022 0.3 93
2020-03-12 00:00:00 12.2 8 Oeste 17 Oeste 0 1022.3 0.8 93
2020-03-11 23:00:00 12.4 8 Oeste 17 Oeste 0 1021.9 0.7 93
2020-03-11 22:00:00 12.3 6 Oeste 11 Oeste 0 1021.7 0.7 92
2020-03-11 21:00:00 12.4 5 Sudoeste 8 Sudoeste 0 1021.5 0.7 90
2020-03-11 20:00:00 13.2 0 Calma 5 Oeste 0 1021.2 0.6 88
2020-03-11 19:00:00 14.1 0 Calma 9 Nordeste 0 1021 0 87
2020-03-11 18:00:00 14.7 7 Norte 13 Norte 0 1020.8 -1 84
2020-03-11 17:00:00 15.1 11 Norte 18 Norte 0 1020.6 -2.2 82
2020-03-11 16:00:00 15.7 12 Norte 18 Norte 0 1021 -2.7 77
2020-03-11 15:00:00 15.6 14 Norte 21 Nordeste 0 1021.8 -2.6 76
2020-03-11 14:00:00 15.7 11 Norte 18 Norte 0 1022.8 -1.9 76
2020-03-11 13:00:00 15.6 13 Norte 18 Nordeste 0 1023.7 -1.4 71
2020-03-11 12:00:00 15 10 Norte 15 Norte 0 1024.4 -0.8 75
2020-03-11 11:00:00 14 6 Norte 11 Norte 0 1024.7 -0.4 74
2020-03-11 10:00:00 10.9 2 Este 11 Sudeste 0 1025.1 -0.1 86
2020-03-11 09:00:00 8.1 5 Sur 11 Sur 0 1025.2 0.1 96
2020-03-11 08:00:00 6.8 6 Sur 9 Sur 0 1025.1 -0.1 97
2020-03-11 07:00:00 6.7 8 Sur 11 Sur 0 1025.2 -0.1 96
2020-03-11 06:00:00 6.3 9 Sur 11 Sur 0 1025.1 -0.7 96
2020-03-11 05:00:00 6.9 4 Sudoeste 8 Sudoeste 0 1025.2 -1.1 96
2020-03-11 04:00:00 6.8 7 Sur 9 Sur 0 1025.3 -1.4 94
2020-03-11 03:00:00 7.6 5 Sudoeste 11 Sur 0 1025.8 -1 94
2020-03-11 02:00:00 7.9 6 Sur 9 Sur 0 1026.3 -0.7 94
2020-03-11 01:00:00 7.8 8 Sur 9 Sur 0 1026.7 0.1 93
2020-03-11 00:00:00 8.6 5 Sudoeste 8 Sudoeste 0 1026.8 0.6 92
2020-03-10 23:00:00 9.3 7 Sur 9 Sur 0 1027 1 90
2020-03-10 22:00:00 9.8 6 Sur 15 Sudeste 0 1026.6 0.5 88
2020-03-10 21:00:00 10.9 5 Sur 8 Sur 0 1026.2 0.2 85
2020-03-10 20:00:00 12.2 6 Sur -- -- 0 1026 -0.1 81
2020-03-10 19:00:00 13.1 6 Nordeste 9 Norte 0 1026.1 0.2 75
2020-03-10 18:00:00 14.2 7 Norte 13 Norte 0 1026 0.3 70
2020-03-10 17:00:00 14.7 9 Norte 18 Noroeste 0 1026.1 0.1 68
2020-03-10 16:00:00 15.4 12 Norte 21 Norte 0 1025.9 -0.3 65
2020-03-10 15:00:00 15.8 12 Norte 21 Norte 0 1025.7 -0.5 65
2020-03-10 14:00:00 16.2 14 Norte 22 Noroeste 0 1026 -0.4 63
2020-03-10 13:00:00 15.7 10 Norte 17 Norte -- 1026.2 0 64
2020-03-10 12:00:00 14.5 5 Nordeste 9 Nordeste -- 1026.2 0.1 63
2020-03-10 11:00:00 12.6 2 Sur 5 Sur -- 1026.4 0.6 76
2020-03-10 10:00:00 10 5 Sur 8 Sur 0 1026.2 0.5 88
2020-03-10 09:00:00 8.8 5 Sur 11 Sudeste 0 1026.1 0.3 91
2020-03-10 08:00:00 8.4 8 Sur 11 Sur 0 1025.8 0 91
2020-03-10 07:00:00 8.7 5 Sudeste 15 Sur 0 1025.7 -0.3 91
2020-03-10 06:00:00 8.6 9 Sur 15 Sur 0 1025.8 -0.7 93
2020-03-10 05:00:00 8.6 11 Sur 15 Sur 0 1025.8 -1.1 94
2020-03-10 04:00:00 8.5 10 Sur 13 Sur 0 1026 -1 95
2020-03-10 03:00:00 8.6 8 Sur 11 Sur 0 1026.5 -0.8 95
2020-03-10 02:00:00 9.3 10 Sur 11 Sur 0 1026.9 -0.9 94
2020-03-10 01:00:00 10 7 Sur 11 Sur 0 1027 -0.7 91
2020-03-10 00:00:00 11 9 Sudoeste 13 Sudoeste 0 1027.3 -0.8 89
2020-03-09 23:00:00 11.6 9 Sudoeste 13 Sudoeste 0 1027.8 -0.2 88
2020-03-09 22:00:00 12.2 9 Sudoeste 13 Oeste 0 1027.7 -0.1 84
2020-03-09 21:00:00 12.4 9 Oeste 15 Oeste 0 1028.1 0.6 82
2020-03-09 20:00:00 12.4 6 Noroeste 24 Noroeste 0 1028 0.8 76
2020-03-09 19:00:00 12.6 11 Noroeste 24 Noroeste 0 1027.8 0.6 77
2020-03-09 18:00:00 12.7 14 Oeste 28 Oeste 0 1027.5 0.2 76
2020-03-09 17:00:00 12.8 14 Oeste 33 Noroeste 0 1027.2 -0.5 72
2020-03-09 16:00:00 13.2 20 Oeste 33 Oeste 0 1027.2 -0.8 73
2020-03-09 15:00:00 13.5 18 Noroeste 33 Noroeste 0 1027.3 -0.7 73
2020-03-09 14:00:00 13.1 13 Noroeste 37 Oeste 0 1027.7 0 76
2020-03-09 13:00:00 13.3 15 Oeste 39 Oeste 0 1028 0.8 72
2020-03-09 12:00:00 13.3 18 Oeste 42 Oeste 0 1028 1.3 73
2020-03-09 11:00:00 12.3 19 Oeste 39 Noroeste 0 1027.7 1.6 79
2020-03-09 10:00:00 11.4 13 Oeste 26 Oeste 0 1027.2 1.5 80
2020-03-09 09:00:00 10.4 19 Noroeste 33 Noroeste 2 1026.7 1 82
2020-03-09 08:00:00 10.3 9 Oeste 42 Oeste 2.3 1026.1 1.1 84
2020-03-09 07:00:00 11.1 12 Oeste 39 Norte 0.4 1025.7 0.6 82
2020-03-09 06:00:00 11.2 21 Noroeste 42 Oeste 0.3 1025.7 0.4 78
2020-03-09 05:00:00 11.5 14 Oeste 28 Oeste 0 1025 -0.1 82
2020-03-09 04:00:00 10.8 12 Oeste 33 Oeste 0.3 1025.1 0.1 79
2020-03-09 03:00:00 11 9 Noroeste 35 Sudoeste 1.3 1025.3 0.5 85
2020-03-09 02:00:00 11.3 10 Oeste 35 Oeste 0.9 1025.1 0.6 85
2020-03-09 01:00:00 11.8 20 Sudoeste 50 Sudoeste 0.4 1025 0.7 81
2020-03-09 00:00:00 12.7 23 Sudoeste 54 Sudoeste 0 1024.8 0.8 78
2020-03-08 23:00:00 13 18 Oeste 41 Oeste 0 1024.5 0.9 77
2020-03-08 22:00:00 13 26 Sudoeste 50 Sudoeste 1.6 1024.3 1.2 79
2020-03-08 21:00:00 13.4 17 Sudoeste 35 Oeste 0 1024 1.4 74
2020-03-08 20:00:00 13.5 16 Sudoeste 30 Sudoeste 0 1023.6 1.7 78
2020-03-08 19:00:00 13.7 15 Oeste 28 Oeste 0 1023.1 0.5 80
2020-03-08 18:00:00 13.4 13 Sudoeste 21 Sudoeste 0 1022.6 0.2 85
2020-03-08 17:00:00 13.6 12 Sudoeste 15 Sudoeste 0 1021.9 -0.2 86
2020-03-08 16:00:00 14.3 8 Oeste 24 Noroeste 0 1022.6 0 82
2020-03-08 15:00:00 16 18 Oeste 32 Sudoeste 0 1022.4 -0.8 61
2020-03-08 14:00:00 16.6 13 Oeste 26 Sudoeste 0 1022.1 -1.1 50
2020-03-08 13:00:00 16.1 12 Sudoeste 21 Sudoeste 0 1022.6 -0.7 61
2020-03-08 12:00:00 14.2 16 Sudoeste 21 Sudoeste 0 1023.2 0.2 68
2020-03-08 11:00:00 11.9 11 Sur 17 Sur 0 1023.2 0.5 76
2020-03-08 10:00:00 9.1 9 Sur 18 Sur 0 1023.3 0.7 87
2020-03-08 09:00:00 7.2 8 Sur 11 Sur 0 1023 0.6 96
2020-03-08 08:00:00 5.9 9 Sur 13 Sur 0 1022.7 0.2 98
2020-03-08 07:00:00 4.8 9 Sur 11 Sudoeste 0 1022.6 -0.6 98
2020-03-08 06:00:00 4.4 9 Sur 13 Sudoeste 0 1022.4 -1.7 99
2020-03-08 05:00:00 4.9 6 Sur 11 Sur 0 1022.5 -2 98
2020-03-08 04:00:00 4.7 7 Sudoeste 9 Sur 0 1023.2 -1.6 98
2020-03-08 03:00:00 5.7 3 Sudoeste 9 Sur 0 1024.1 -1.7 98
2020-03-08 02:00:00 5.8 8 Sur 11 Sur 0 1024.5 -1.8 97
2020-03-08 01:00:00 7.5 6 Sudoeste 8 Sur 0 1024.8 -1.6 96
2020-03-08 00:00:00 8.3 3 Sur 8 Sur 0 1025.8 -0.6 96